createdAt,value
2023-11-11T00:01:40.020Z,47.77
2023-11-11T00:04:09.820Z,42.40
2023-11-11T00:06:38.601Z,48.47
2023-11-11T00:09:07.502Z,67.87
2023-11-11T00:11:38.010Z,83.40
2023-11-11T00:14:06.932Z,84.80
2023-11-11T00:16:36.371Z,67.10
2023-11-11T00:19:05.182Z,58.50
2023-11-11T00:21:34.577Z,55.80
2023-11-11T00:24:03.379Z,53.50
2023-11-11T00:26:32.130Z,56.97
2023-11-11T00:29:04.198Z,48.90
2023-11-11T00:31:34.884Z,45.90
2023-11-11T00:34:03.715Z,55.77
2023-11-11T00:36:32.383Z,45.20
2023-11-11T00:39:01.114Z,48.90
2023-11-11T00:41:29.776Z,52.10
2023-11-11T00:43:58.794Z,57.67
2023-11-11T00:46:28.927Z,45.37
2023-11-11T00:48:58.334Z,50.53
2023-11-11T00:51:27.548Z,52.50
2023-11-11T00:53:57.819Z,50.07
2023-11-11T00:56:26.692Z,50.70
2023-11-11T00:58:55.428Z,50.13
2023-11-11T01:01:24.334Z,49.80
2023-11-11T01:03:54.577Z,48.63
2023-11-11T01:06:23.390Z,52.30
2023-11-11T01:08:52.059Z,47.33
2023-11-11T01:11:22.071Z,50.77
2023-11-11T01:13:51.136Z,47.00
2023-11-11T01:16:19.957Z,44.00
2023-11-11T01:18:49.312Z,52.47
2023-11-11T01:21:19.796Z,51.60
2023-11-11T01:23:48.615Z,55.20
2023-11-11T01:26:17.949Z,61.83
2023-11-11T01:28:46.780Z,56.77
2023-11-11T01:31:17.029Z,52.20
2023-11-11T01:33:45.799Z,56.13
2023-11-11T01:36:14.775Z,55.53
2023-11-11T01:38:44.965Z,58.07
2023-11-11T01:41:14.482Z,59.07
2023-11-11T01:43:43.187Z,55.77
2023-11-11T01:46:12.482Z,58.10
2023-11-11T01:48:42.816Z,53.23
2023-11-11T01:51:11.778Z,54.30
2023-11-11T01:53:40.780Z,50.43
2023-11-11T01:56:11.460Z,47.00
2023-11-11T01:58:40.987Z,53.60
2023-11-11T02:01:10.780Z,54.87
2023-11-11T02:03:40.372Z,50.73
2023-11-11T02:06:12.532Z,48.10
2023-11-11T02:08:41.340Z,46.10
2023-11-11T02:11:12.212Z,47.00
2023-11-11T02:13:41.219Z,49.47
2023-11-11T02:16:10.619Z,57.23
2023-11-11T02:18:39.644Z,45.67
2023-11-11T02:21:08.505Z,52.77
2023-11-11T02:23:39.762Z,51.90
2023-11-11T02:26:08.523Z,51.20
2023-11-11T02:28:37.312Z,50.97
2023-11-11T02:31:06.975Z,52.20
2023-11-11T02:33:37.439Z,47.17
2023-11-11T02:36:07.889Z,52.13
2023-11-11T02:38:38.168Z,52.87
2023-11-11T02:41:07.040Z,48.30
2023-11-11T02:43:35.927Z,44.30
2023-11-11T02:46:04.876Z,53.47
2023-11-11T02:48:34.176Z,43.90
2023-11-11T02:51:02.968Z,44.00
2023-11-11T02:53:31.752Z,46.63
2023-11-11T02:56:01.863Z,41.63
2023-11-11T02:58:30.572Z,41.83
2023-11-11T03:00:59.255Z,44.10
2023-11-11T03:03:29.111Z,52.33
2023-11-11T03:05:57.858Z,47.37
2023-11-11T03:08:26.646Z,47.73
2023-11-11T03:10:55.471Z,53.33
2023-11-11T03:13:25.734Z,53.40
2023-11-11T03:15:55.343Z,51.70
2023-11-11T03:18:24.397Z,43.77
2023-11-11T03:20:54.108Z,48.60
2023-11-11T03:23:22.908Z,45.87
2023-11-11T03:25:51.874Z,48.20
2023-11-11T03:28:20.660Z,49.50
2023-11-11T03:30:50.827Z,43.47
2023-11-11T03:33:19.558Z,49.63
2023-11-11T03:35:52.500Z,49.60
2023-11-11T03:38:23.340Z,53.20
2023-11-11T03:40:51.994Z,51.50
2023-11-11T03:43:20.720Z,56.57
2023-11-11T03:45:51.028Z,54.70
2023-11-11T03:48:19.816Z,57.03
2023-11-11T03:50:48.634Z,53.37
2023-11-11T03:53:17.800Z,49.93
2023-11-11T03:55:46.518Z,48.10
2023-11-11T03:58:15.173Z,50.43
2023-11-11T04:00:45.036Z,51.23
2023-11-11T04:03:15.627Z,43.77
2023-11-11T04:05:44.518Z,49.90
2023-11-11T04:08:13.946Z,48.43
2023-11-11T04:10:42.787Z,46.93
2023-11-11T04:13:13.513Z,44.90
2023-11-11T04:15:42.406Z,43.90
2023-11-11T04:18:11.267Z,43.30
2023-11-11T04:20:41.460Z,43.50
2023-11-11T04:23:10.390Z,43.70
2023-11-11T04:25:39.238Z,50.97
2023-11-11T04:28:07.929Z,45.13
2023-11-11T04:30:36.608Z,42.70
2023-11-11T04:33:05.847Z,48.53
2023-11-11T04:35:34.527Z,51.00
2023-11-11T04:38:09.377Z,54.00
2023-11-11T04:40:38.947Z,61.17
2023-11-11T04:43:08.113Z,58.70
2023-11-11T04:45:37.207Z,50.47
2023-11-11T04:48:06.458Z,49.00
2023-11-11T04:50:35.276Z,49.10
2023-11-11T04:53:05.360Z,53.30
2023-11-11T04:55:34.135Z,52.90
2023-11-11T04:58:02.919Z,55.37
2023-11-11T05:00:31.663Z,59.73
2023-11-11T05:03:01.908Z,67.30
2023-11-11T05:05:30.872Z,95.10
2023-11-11T05:07:59.608Z,73.50
2023-11-11T05:10:32.160Z,68.90
2023-11-11T05:13:02.624Z,60.20
2023-11-11T05:15:31.876Z,55.70
2023-11-11T05:18:00.639Z,64.20
2023-11-11T05:20:29.437Z,55.53
2023-11-11T05:22:58.671Z,52.37
2023-11-11T05:25:29.490Z,50.83
2023-11-11T05:27:58.603Z,48.50
2023-11-11T05:30:28.118Z,59.00
2023-11-11T05:32:56.937Z,61.50
2023-11-11T05:35:25.649Z,57.33
2023-11-11T05:37:55.920Z,52.23
2023-11-11T05:40:24.665Z,56.50
2023-11-11T05:42:54.883Z,52.93
2023-11-11T05:45:23.691Z,39.70
2023-11-11T05:47:52.544Z,46.20
2023-11-11T05:50:21.815Z,47.73
2023-11-11T05:52:51.336Z,44.17
2023-11-11T05:55:20.776Z,44.50
2023-11-11T05:57:49.537Z,54.63
2023-11-11T06:00:20.481Z,50.33
2023-11-11T06:02:49.278Z,58.63
2023-11-11T06:05:18.121Z,47.90
2023-11-11T06:07:46.915Z,50.57
2023-11-11T06:10:15.779Z,46.13
2023-11-11T06:12:44.932Z,43.73
2023-11-11T06:15:14.728Z,43.07
2023-11-11T06:17:44.918Z,45.50
2023-11-11T06:20:14.595Z,41.53
2023-11-11T06:22:44.029Z,48.73
2023-11-11T06:25:12.770Z,42.83
2023-11-11T06:27:42.329Z,39.73
2023-11-11T06:30:11.892Z,41.97
2023-11-11T06:32:42.441Z,39.53
2023-11-11T06:35:13.728Z,44.87
2023-11-11T06:37:43.067Z,38.37
2023-11-11T06:40:12.524Z,40.23
2023-11-11T06:42:41.742Z,37.47
2023-11-11T06:45:16.270Z,40.00
2023-11-11T06:47:45.617Z,44.37
2023-11-11T06:50:18.504Z,38.30
2023-11-11T06:52:47.511Z,36.67
2023-11-11T06:55:16.259Z,40.50
2023-11-11T06:57:45.010Z,40.13
2023-11-11T07:00:17.662Z,39.50
2023-11-11T07:02:48.970Z,38.97
2023-11-11T07:05:19.262Z,41.53
2023-11-11T07:07:48.355Z,48.30
2023-11-11T07:10:17.269Z,57.00
2023-11-11T07:12:46.472Z,59.73
2023-11-11T07:15:17.171Z,45.50
2023-11-11T07:17:46.543Z,43.93
2023-11-11T07:20:20.568Z,42.20
2023-11-11T07:22:51.422Z,40.70
2023-11-11T07:25:22.410Z,39.77
2023-11-11T07:27:51.186Z,38.90
2023-11-11T07:30:20.125Z,44.20
2023-11-11T07:32:57.224Z,48.03
2023-11-11T07:35:30.784Z,55.17
2023-11-11T07:38:02.298Z,41.77
2023-11-11T07:40:33.833Z,48.47
2023-11-11T07:43:02.635Z,47.97
2023-11-11T07:45:31.378Z,49.50
2023-11-11T07:48:00.100Z,45.20
2023-11-11T07:50:28.797Z,40.00
2023-11-11T07:52:57.478Z,42.07
2023-11-11T07:55:27.780Z,38.27
2023-11-11T08:00:28.060Z,35.77
2023-11-11T08:02:57.412Z,37.73
2023-11-11T08:05:29.707Z,39.37
2023-11-11T08:08:11.504Z,39.50
2023-11-11T08:10:47.470Z,39.43
2023-11-11T08:13:16.284Z,51.67
2023-11-11T08:15:45.335Z,45.07
2023-11-11T08:18:14.480Z,48.63
2023-11-11T08:20:43.882Z,51.40
2023-11-11T08:23:12.707Z,49.60
2023-11-11T08:25:41.662Z,43.63
2023-11-11T08:28:11.850Z,43.10
2023-11-11T08:30:42.306Z,37.20
2023-11-11T08:33:11.969Z,35.63
2023-11-11T08:35:40.601Z,33.83
2023-11-11T08:38:09.420Z,36.90
2023-11-11T08:40:38.203Z,35.20
2023-11-11T08:43:11.247Z,35.77
2023-11-11T08:45:40.015Z,32.73
2023-11-11T08:48:08.850Z,36.13
2023-11-11T08:50:37.641Z,37.80
2023-11-11T08:53:06.488Z,37.33
2023-11-11T08:55:35.876Z,35.03
2023-11-11T08:58:05.807Z,32.57
2023-11-11T09:00:36.682Z,34.27
2023-11-11T09:03:06.409Z,33.77
2023-11-11T09:05:35.711Z,31.60
2023-11-11T09:08:04.486Z,32.80
2023-11-11T09:10:33.288Z,37.30
2023-11-11T09:13:02.320Z,30.73
2023-11-11T09:15:31.413Z,30.17
2023-11-11T09:18:02.790Z,32.70
2023-11-11T09:20:31.567Z,30.93
2023-11-11T09:23:00.335Z,32.63
2023-11-11T09:25:31.096Z,31.77
2023-11-11T09:28:00.063Z,29.67
2023-11-11T09:30:29.443Z,30.20
2023-11-11T09:32:59.642Z,30.00
2023-11-11T09:35:29.973Z,29.87
2023-11-11T09:37:58.854Z,29.70
2023-11-11T09:40:27.731Z,29.57
2023-11-11T09:42:56.506Z,31.40
2023-11-11T09:45:25.919Z,31.30
2023-11-11T09:47:55.470Z,29.87
2023-11-11T09:50:27.039Z,31.00
2023-11-11T09:52:59.061Z,28.67
2023-11-11T09:55:30.364Z,29.90
2023-11-11T09:57:59.504Z,25.43
2023-11-11T10:00:32.997Z,26.70
2023-11-11T10:03:03.227Z,28.80
2023-11-11T10:05:32.809Z,33.93
2023-11-11T10:08:03.017Z,29.20
2023-11-11T10:10:33.654Z,26.50
2023-11-11T10:13:02.506Z,24.70
2023-11-11T10:15:31.628Z,27.07
2023-11-11T10:18:04.453Z,26.40
2023-11-11T10:20:33.272Z,27.40
2023-11-11T10:23:03.492Z,23.77
2023-11-11T10:25:32.564Z,23.37
2023-11-11T10:28:02.570Z,26.67
2023-11-11T10:30:31.287Z,22.97
2023-11-11T10:33:05.912Z,20.80
2023-11-11T10:35:34.938Z,21.47
2023-11-11T10:38:05.561Z,20.13
2023-11-11T10:40:35.736Z,21.17
2023-11-11T10:43:05.729Z,20.70
2023-11-11T10:45:35.119Z,19.20
2023-11-11T10:48:04.389Z,19.13
2023-11-11T10:50:33.598Z,19.17
2023-11-11T10:53:05.490Z,20.53
2023-11-11T10:55:37.902Z,21.50
2023-11-11T10:58:08.436Z,22.87
2023-11-11T11:00:38.039Z,20.37
2023-11-11T11:03:07.777Z,19.17
2023-11-11T11:05:42.943Z,19.07
2023-11-11T11:08:21.305Z,22.10
2023-11-11T11:10:59.739Z,18.10
2023-11-11T11:13:30.813Z,18.47
2023-11-11T11:16:00.839Z,19.20
2023-11-11T11:18:29.627Z,17.97
2023-11-11T11:21:00.723Z,15.17
2023-11-11T11:23:38.811Z,17.53
2023-11-11T11:26:07.782Z,17.83
2023-11-11T11:28:36.684Z,17.47
2023-11-11T11:31:05.711Z,18.10
2023-11-11T11:33:37.532Z,19.90
2023-11-11T11:36:10.831Z,19.50
2023-11-11T11:38:42.390Z,20.03
2023-11-11T11:41:14.164Z,20.77
2023-11-11T11:43:44.068Z,21.10
2023-11-11T11:46:13.056Z,23.10
2023-11-11T11:48:44.149Z,20.77
2023-11-11T11:51:14.296Z,20.83
2023-11-11T11:53:46.823Z,21.37
2023-11-11T11:56:30.132Z,22.70
2023-11-11T11:59:00.882Z,21.93
2023-11-11T12:01:30.952Z,20.40
2023-11-11T12:04:01.500Z,20.50
2023-11-11T12:06:30.721Z,19.90
2023-11-11T12:09:02.567Z,22.40
2023-11-11T12:11:32.695Z,20.57
2023-11-11T12:14:06.668Z,19.63
2023-11-11T12:16:40.229Z,23.00
2023-11-11T12:19:13.544Z,19.23
2023-11-11T12:21:46.039Z,19.13
2023-11-11T12:24:18.565Z,18.87
2023-11-11T12:26:49.281Z,21.00
2023-11-11T12:29:20.577Z,18.90
2023-11-11T12:31:50.403Z,21.13
2023-11-11T12:34:21.040Z,20.43
2023-11-11T12:36:50.243Z,23.73
2023-11-11T12:39:22.287Z,22.43
2023-11-11T12:41:55.163Z,22.90
2023-11-11T12:44:26.129Z,22.67
2023-11-11T12:46:57.887Z,20.23
2023-11-11T12:49:29.601Z,29.83
2023-11-11T12:52:01.403Z,18.53
2023-11-11T12:54:35.983Z,17.87
2023-11-11T12:57:05.263Z,18.43
2023-11-11T12:59:34.189Z,22.10
2023-11-11T13:02:03.617Z,26.03
2023-11-11T13:04:33.153Z,26.70
2023-11-11T13:07:03.043Z,22.70
2023-11-11T13:09:44.349Z,23.87
2023-11-11T13:12:14.704Z,23.30
2023-11-11T13:14:46.529Z,24.90
2023-11-11T13:17:16.140Z,24.17
2023-11-11T13:19:47.185Z,24.93
2023-11-11T13:22:16.122Z,20.00
2023-11-11T13:24:46.298Z,26.20
2023-11-11T13:27:15.154Z,23.57
2023-11-11T13:29:44.258Z,26.10
2023-11-11T13:32:13.915Z,24.23
2023-11-11T13:34:45.733Z,24.10
2023-11-11T13:37:23.651Z,27.20
2023-11-11T13:40:02.258Z,27.00
2023-11-11T13:42:31.907Z,26.67
2023-11-11T13:45:01.065Z,24.37
2023-11-11T13:47:30.384Z,23.33
2023-11-11T13:50:01.094Z,21.23
2023-11-11T13:52:30.009Z,19.50
2023-11-11T13:55:00.294Z,23.20
2023-11-11T13:57:29.061Z,22.23
2023-11-11T13:59:57.740Z,25.17
2023-11-11T14:02:27.326Z,26.00
2023-11-11T14:04:57.959Z,25.43
2023-11-11T14:07:28.894Z,21.60
2023-11-11T14:09:57.794Z,22.03
2023-11-11T14:12:28.101Z,22.00
2023-11-11T14:14:57.572Z,31.37
2023-11-11T14:17:27.921Z,24.80
2023-11-11T14:19:57.602Z,25.17
2023-11-11T14:22:29.085Z,28.10
2023-11-11T14:24:58.004Z,26.33
2023-11-11T14:27:28.898Z,24.80
2023-11-11T14:29:58.016Z,22.20
2023-11-11T14:32:28.079Z,21.10
2023-11-11T14:34:58.470Z,24.47
2023-11-11T14:37:27.516Z,22.07
2023-11-11T14:39:57.065Z,24.53
2023-11-11T14:42:25.797Z,24.20
2023-11-11T14:44:56.743Z,24.83
2023-11-11T14:47:26.455Z,25.27
2023-11-11T14:49:55.425Z,27.87
2023-11-11T14:52:24.222Z,27.57
2023-11-11T14:54:53.022Z,28.97
2023-11-11T14:57:22.593Z,30.97
2023-11-11T14:59:51.345Z,36.83
2023-11-11T15:02:22.184Z,31.13
2023-11-11T15:04:51.136Z,32.83
2023-11-11T15:07:20.081Z,31.07
2023-11-11T15:09:49.198Z,30.77
2023-11-11T15:12:20.848Z,31.03
2023-11-11T15:14:50.025Z,27.80
2023-11-11T15:17:19.269Z,29.40
2023-11-11T15:19:50.987Z,28.70
2023-11-11T15:22:20.430Z,35.77
2023-11-11T15:24:49.588Z,35.77
2023-11-11T15:27:18.417Z,30.30
2023-11-11T15:29:49.458Z,29.27
2023-11-11T15:32:21.321Z,32.10
2023-11-11T15:34:52.085Z,30.27
2023-11-11T15:37:21.003Z,31.93
2023-11-11T15:39:50.270Z,44.33
2023-11-11T15:42:19.185Z,38.50
2023-11-11T15:44:49.216Z,37.10
2023-11-11T15:47:18.645Z,36.03
2023-11-11T15:49:47.802Z,41.53
2023-11-11T15:52:17.938Z,94.47
2023-11-11T15:54:46.690Z,80.27
2023-11-11T15:57:15.461Z,54.17
2023-11-11T15:59:44.198Z,66.50
2023-11-11T16:02:13.522Z,69.10
2023-11-11T16:04:42.492Z,76.03
2023-11-11T16:07:11.679Z,71.20
2023-11-11T16:09:42.318Z,82.17
2023-11-11T16:12:14.504Z,87.87
2023-11-11T16:14:43.326Z,88.10
2023-11-11T16:17:14.639Z,94.60
2023-11-11T16:19:46.378Z,93.53
2023-11-11T16:22:15.925Z,90.97
2023-11-11T16:24:46.769Z,100.30
2023-11-11T16:27:15.517Z,91.00
2023-11-11T16:29:44.292Z,83.63
2023-11-11T16:32:13.056Z,86.47
2023-11-11T16:34:41.907Z,77.33
2023-11-11T16:37:11.560Z,63.47
2023-11-11T16:39:43.003Z,64.40
2023-11-11T16:42:17.073Z,63.40
2023-11-11T16:44:48.405Z,62.77
2023-11-11T16:47:18.479Z,72.60
2023-11-11T16:49:48.536Z,68.77
2023-11-11T16:52:18.814Z,64.67
2023-11-11T16:54:47.663Z,66.20
2023-11-11T16:57:17.980Z,64.63
2023-11-11T16:59:47.225Z,58.40
2023-11-11T17:02:18.428Z,56.80
2023-11-11T17:04:47.355Z,57.80
2023-11-11T17:07:24.724Z,59.83
2023-11-11T17:09:58.311Z,60.90
2023-11-11T17:12:30.074Z,56.53
2023-11-11T17:14:59.472Z,61.47
2023-11-11T17:17:28.799Z,64.20
2023-11-11T17:19:58.668Z,65.90
2023-11-11T17:22:28.326Z,63.80
2023-11-11T17:24:58.654Z,65.10
2023-11-11T17:27:28.554Z,65.17
2023-11-11T17:30:02.033Z,68.60
2023-11-11T17:32:32.078Z,70.50
2023-11-11T17:35:01.840Z,73.40
2023-11-11T17:37:31.883Z,66.47
2023-11-11T17:40:01.050Z,64.93
2023-11-11T17:42:29.972Z,63.73
2023-11-11T17:45:00.316Z,62.03
2023-11-11T17:47:29.140Z,66.87
2023-11-11T17:49:58.593Z,70.20
2023-11-11T17:52:27.862Z,69.27
2023-11-11T17:54:56.718Z,63.10
2023-11-11T17:57:26.056Z,72.57
2023-11-11T17:59:55.207Z,60.37
2023-11-11T18:02:27.341Z,59.00
2023-11-11T18:04:56.269Z,68.77
2023-11-11T18:07:25.046Z,68.23
2023-11-11T18:09:54.200Z,62.37
2023-11-11T18:12:23.158Z,58.57
2023-11-11T18:14:51.913Z,70.17
2023-11-11T18:17:21.348Z,70.53
2023-11-11T18:19:52.184Z,64.63
2023-11-11T18:22:20.093Z,67.77
2023-11-11T18:24:48.782Z,74.30
2023-11-11T18:27:18.123Z,66.00
2023-11-11T18:29:47.127Z,75.27
2023-11-11T18:32:16.423Z,62.27
2023-11-11T18:34:45.715Z,66.53
2023-11-11T18:37:16.753Z,64.50
2023-11-11T18:39:46.160Z,68.97
2023-11-11T18:42:17.523Z,63.73
2023-11-11T18:44:47.892Z,70.20
2023-11-11T18:47:18.626Z,62.60
2023-11-11T18:49:49.308Z,64.03
2023-11-11T18:52:22.493Z,57.13
2023-11-11T18:54:53.318Z,52.60
2023-11-11T18:57:24.070Z,57.10
2023-11-11T18:59:55.322Z,56.50
2023-11-11T19:02:27.187Z,49.23
2023-11-11T19:04:58.383Z,55.30
2023-11-11T19:07:31.182Z,50.03
2023-11-11T19:10:01.969Z,50.30
2023-11-11T19:12:32.816Z,51.73
2023-11-11T19:15:03.898Z,46.17
2023-11-11T19:17:35.070Z,46.23
2023-11-11T19:20:09.576Z,43.77
2023-11-11T19:22:42.437Z,43.23
2023-11-11T19:25:13.504Z,41.00
2023-11-11T19:27:45.675Z,41.63
2023-11-11T19:30:17.168Z,39.40
2023-11-11T19:32:48.830Z,35.80
2023-11-11T19:35:23.761Z,33.17
2023-11-11T19:37:58.813Z,29.80
2023-11-11T19:40:30.576Z,30.30
2023-11-11T19:43:01.660Z,26.17
2023-11-11T19:45:32.653Z,27.63
2023-11-11T19:48:03.480Z,30.03
2023-11-11T19:50:34.668Z,24.93
2023-11-11T19:53:07.918Z,22.60
2023-11-11T19:55:39.883Z,23.67
2023-11-11T19:58:10.305Z,23.50
2023-11-11T20:00:39.541Z,25.43
2023-11-11T20:03:09.622Z,24.67
2023-11-11T20:05:39.420Z,22.80
2023-11-11T20:08:12.009Z,23.63
2023-11-11T20:10:42.475Z,24.60
2023-11-11T20:13:12.481Z,22.73
2023-11-11T20:15:43.075Z,27.00
2023-11-11T20:18:13.173Z,22.50
2023-11-11T20:20:42.846Z,23.90
2023-11-11T20:23:13.968Z,21.47
2023-11-11T20:25:43.938Z,22.27
2023-11-11T20:28:13.836Z,25.73
2023-11-11T20:30:43.897Z,22.17
2023-11-11T20:33:14.460Z,22.70
2023-11-11T20:35:53.842Z,24.23
2023-11-11T20:38:25.905Z,22.40
2023-11-11T20:40:56.351Z,22.40
2023-11-11T20:43:27.096Z,24.57
2023-11-11T20:45:58.432Z,24.57
2023-11-11T20:48:29.268Z,22.33
2023-11-11T20:51:00.309Z,20.37
2023-11-11T20:53:33.957Z,18.07
2023-11-11T20:56:04.801Z,20.23
2023-11-11T20:58:35.667Z,21.27
2023-11-11T21:01:04.580Z,19.13
2023-11-11T21:03:33.454Z,19.40
2023-11-11T21:06:02.425Z,18.67
2023-11-11T21:08:32.657Z,17.10
2023-11-11T21:11:01.697Z,18.70
2023-11-11T21:13:31.618Z,18.07
2023-11-11T21:16:00.364Z,19.33
2023-11-11T21:18:29.119Z,21.70
2023-11-11T21:20:57.922Z,18.10
2023-11-11T21:23:26.648Z,18.83
2023-11-11T21:25:56.878Z,20.57
2023-11-11T21:28:25.689Z,19.90
2023-11-11T21:30:56.427Z,19.80
2023-11-11T21:33:25.547Z,19.03
2023-11-11T21:35:54.379Z,18.90
2023-11-11T21:38:25.336Z,20.00
2023-11-11T21:40:56.356Z,19.53
2023-11-11T21:43:25.168Z,21.23
2023-11-11T21:45:54.606Z,20.13
2023-11-11T21:48:23.425Z,19.60
2023-11-11T21:50:52.213Z,20.43
2023-11-11T21:53:21.502Z,19.50
2023-11-11T21:55:50.226Z,23.07
2023-11-11T21:58:20.375Z,19.50
2023-11-11T22:00:49.101Z,18.83
2023-11-11T22:03:17.900Z,21.27
2023-11-11T22:05:46.768Z,17.70
2023-11-11T22:08:15.557Z,18.57
2023-11-11T22:10:44.530Z,19.27
2023-11-11T22:13:13.456Z,16.40
2023-11-11T22:15:43.576Z,18.33
2023-11-11T22:18:12.491Z,18.00
2023-11-11T22:20:41.285Z,16.27
2023-11-11T22:23:10.056Z,17.13
2023-11-11T22:25:38.822Z,15.87
2023-11-11T22:28:07.542Z,15.30
2023-11-11T22:30:36.320Z,14.87
2023-11-11T22:33:12.854Z,17.87
2023-11-11T22:35:42.834Z,14.57
2023-11-11T22:38:11.705Z,15.20
2023-11-11T22:40:40.874Z,13.60
2023-11-11T22:43:09.621Z,13.70
2023-11-11T22:45:38.279Z,14.43
2023-11-11T22:48:10.165Z,13.63
2023-11-11T22:50:40.369Z,13.33
2023-11-11T22:53:09.732Z,14.50
2023-11-11T22:55:38.930Z,13.83
2023-11-11T22:58:08.968Z,12.10
2023-11-11T23:00:42.544Z,13.43
2023-11-11T23:03:12.659Z,13.43
2023-11-11T23:05:44.661Z,11.93
2023-11-11T23:08:15.077Z,12.17
2023-11-11T23:10:45.359Z,13.13
2023-11-11T23:13:14.368Z,12.13
2023-11-11T23:15:43.488Z,11.40
2023-11-11T23:18:13.341Z,11.37
2023-11-11T23:20:45.369Z,9.63
2023-11-11T23:23:15.025Z,9.80
2023-11-11T23:25:44.404Z,10.97
2023-11-11T23:28:13.163Z,10.60
2023-11-11T23:30:42.067Z,9.97
2023-11-11T23:33:12.257Z,10.57
2023-11-11T23:35:42.497Z,10.87
2023-11-11T23:38:11.216Z,11.13
2023-11-11T23:40:41.388Z,11.10
2023-11-11T23:43:10.380Z,11.03
2023-11-11T23:45:39.066Z,12.87
2023-11-11T23:48:08.120Z,10.93
2023-11-11T23:50:36.864Z,13.17
2023-11-11T23:53:06.994Z,11.83
2023-11-11T23:55:36.030Z,10.47
2023-11-11T23:58:04.890Z,11.43
